createdAt,value
2023-03-27T00:01:30.697Z,96421.83
2023-03-27T00:03:58.829Z,96417.48
2023-03-27T00:06:27.420Z,96411.70
2023-03-27T00:08:55.797Z,96404.10
2023-03-27T00:11:25.103Z,96396.88
2023-03-27T00:13:54.891Z,96396.10
2023-03-27T00:16:26.753Z,96382.60
2023-03-27T00:18:56.037Z,96377.65
2023-03-27T00:21:26.062Z,96360.40
2023-03-27T00:23:54.597Z,96345.25
2023-03-27T00:26:22.987Z,96337.47
2023-03-27T00:28:51.183Z,96320.66
2023-03-27T00:31:19.156Z,96313.02
2023-03-27T00:33:47.199Z,96303.69
2023-03-27T00:36:15.419Z,96296.95
2023-03-27T00:38:43.915Z,96296.45
2023-03-27T00:41:12.743Z,96292.17
2023-03-27T00:43:43.976Z,96288.17
2023-03-27T00:46:15.689Z,96291.08
2023-03-27T00:48:48.126Z,96293.79
2023-03-27T00:51:17.240Z,96302.67
2023-03-27T00:53:47.719Z,96309.23
2023-03-27T00:56:16.736Z,96305.85
2023-03-27T00:58:49.822Z,96301.02
2023-03-27T01:01:20.340Z,96297.30
2023-03-27T01:03:50.298Z,96299.50
2023-03-27T01:06:19.312Z,96295.08
2023-03-27T01:08:48.300Z,96291.27
2023-03-27T01:11:35.213Z,96287.36
2023-03-27T01:14:24.911Z,96287.33
2023-03-27T01:17:02.114Z,96276.41
2023-03-27T01:19:36.584Z,96279.08
2023-03-27T01:22:40.800Z,96281.54
2023-03-27T01:25:46.669Z,96280.11
2023-03-27T01:28:24.546Z,96276.69
2023-03-27T01:31:15.588Z,96270.63
2023-03-27T01:34:14.491Z,96270.25
2023-03-27T01:37:14.829Z,96262.92
2023-03-27T01:40:08.003Z,96263.64
2023-03-27T01:42:58.641Z,96257.76
2023-03-27T01:45:48.221Z,96256.17
2023-03-27T01:48:18.848Z,96252.88
2023-03-27T01:51:03.740Z,96246.84
2023-03-27T01:53:47.252Z,96233.73
2023-03-27T01:56:26.835Z,96225.73
2023-03-27T01:59:06.820Z,96215.50
2023-03-27T02:01:39.494Z,96199.58
2023-03-27T02:04:13.640Z,96196.17
2023-03-27T02:06:51.577Z,96187.14
2023-03-27T02:09:27.057Z,96179.23
2023-03-27T02:12:04.838Z,96166.79
2023-03-27T02:14:38.431Z,96169.86
2023-03-27T02:17:13.003Z,96170.55
2023-03-27T02:19:50.586Z,96175.48
2023-03-27T02:22:18.894Z,96166.44
2023-03-27T02:24:49.079Z,96175.67
2023-03-27T02:27:23.684Z,96168.27
2023-03-27T02:30:05.769Z,96174.31
2023-03-27T02:32:35.710Z,96161.53
2023-03-27T02:35:30.687Z,96153.83
2023-03-27T02:38:19.252Z,96150.42
2023-03-27T02:41:36.368Z,96137.23
2023-03-27T02:44:17.513Z,96142.17
2023-03-27T02:47:19.213Z,96139.98
2023-03-27T02:49:55.298Z,96136.97
2023-03-27T02:52:29.005Z,96141.45
2023-03-27T02:55:06.589Z,96137.58
2023-03-27T02:57:39.350Z,96138.04
2023-03-27T03:00:34.001Z,96132.70
2023-03-27T03:03:18.244Z,96133.65
2023-03-27T03:05:50.893Z,96136.35
2023-03-27T03:08:21.755Z,96132.63
2023-03-27T03:10:50.172Z,96134.63
2023-03-27T03:13:18.711Z,96136.27
2023-03-27T03:15:48.899Z,96135.83
2023-03-27T03:18:18.483Z,96136.83
2023-03-27T03:20:47.339Z,96132.27
2023-03-27T03:23:16.113Z,96127.55
2023-03-27T03:25:44.805Z,96127.27
2023-03-27T03:28:13.685Z,96117.36
2023-03-27T03:30:42.984Z,96114.71
2023-03-27T03:33:14.380Z,96111.95
2023-03-27T03:35:43.325Z,96102.42
2023-03-27T03:38:28.052Z,96080.08
2023-03-27T03:40:58.624Z,96074.30
2023-03-27T03:43:29.121Z,96083.39
2023-03-27T03:45:57.747Z,96092.01
2023-03-27T03:48:26.739Z,96097.56
2023-03-27T03:50:55.101Z,96095.23
2023-03-27T03:53:23.454Z,96083.98
2023-03-27T03:55:53.422Z,96071.45
2023-03-27T03:58:21.882Z,96069.88
2023-03-27T04:01:05.222Z,96066.52
2023-03-27T04:03:39.227Z,96048.71
2023-03-27T04:06:08.157Z,96036.95
2023-03-27T04:08:37.672Z,96026.55
2023-03-27T04:11:06.088Z,96032.02
2023-03-27T04:13:56.958Z,96027.27
2023-03-27T04:16:34.119Z,96025.70
2023-03-27T04:19:07.187Z,96023.33
2023-03-27T04:21:36.540Z,96020.13
2023-03-27T04:24:05.361Z,96025.83
2023-03-27T04:26:43.766Z,96025.66
2023-03-27T04:29:30.386Z,96029.84
2023-03-27T04:32:01.494Z,96029.75
2023-03-27T04:34:41.960Z,96029.88
2023-03-27T04:37:43.074Z,96029.25
2023-03-27T04:40:25.493Z,96020.48
2023-03-27T04:42:56.000Z,95983.06
2023-03-27T04:45:25.784Z,95990.08
2023-03-27T04:47:54.882Z,95990.85
2023-03-27T04:50:23.373Z,95975.75
2023-03-27T04:52:52.626Z,95971.42
2023-03-27T04:55:24.042Z,95978.20
2023-03-27T04:57:53.438Z,95977.15
2023-03-27T05:00:23.952Z,95974.58
2023-03-27T05:03:28.975Z,95968.13
2023-03-27T05:06:12.154Z,95958.02
2023-03-27T05:08:41.622Z,95943.95
2023-03-27T05:11:15.944Z,95941.29
2023-03-27T05:13:44.764Z,95939.13
2023-03-27T05:16:14.104Z,95949.30
2023-03-27T05:18:46.016Z,95946.96
2023-03-27T05:21:14.877Z,95935.26
2023-03-27T05:23:43.404Z,95926.04
2023-03-27T05:26:11.391Z,95927.93
2023-03-27T05:28:59.428Z,95926.85
2023-03-27T05:31:28.414Z,95928.16
2023-03-27T05:34:05.912Z,95924.15
2023-03-27T05:36:35.513Z,95922.91
2023-03-27T05:39:04.648Z,95920.32
2023-03-27T05:41:47.476Z,95919.77
2023-03-27T05:44:23.747Z,95922.34
2023-03-27T05:46:51.981Z,95925.07
2023-03-27T05:49:25.640Z,95925.48
2023-03-27T05:51:58.329Z,95919.98
2023-03-27T05:54:26.504Z,95922.48
2023-03-27T05:56:58.953Z,95911.58
2023-03-27T05:59:27.290Z,95903.70
2023-03-27T06:01:59.597Z,95907.98
2023-03-27T06:04:36.880Z,95903.41
2023-03-27T06:07:12.719Z,95893.48
2023-03-27T06:09:41.272Z,95889.99
2023-03-27T06:12:31.039Z,95891.75
2023-03-27T06:15:07.485Z,95892.70
2023-03-27T06:17:42.556Z,95897.66
2023-03-27T06:20:12.721Z,95899.54
2023-03-27T06:22:50.431Z,95896.00
2023-03-27T06:25:20.438Z,95891.02
2023-03-27T06:27:51.404Z,95892.82
2023-03-27T06:30:22.708Z,95890.27
2023-03-27T06:33:12.816Z,95886.70
2023-03-27T06:35:43.196Z,95884.29
2023-03-27T06:38:25.456Z,95879.84
2023-03-27T06:40:53.540Z,95873.23
2023-03-27T06:43:23.537Z,95865.77
2023-03-27T06:46:03.231Z,95860.59
2023-03-27T06:48:51.257Z,95853.76
2023-03-27T06:51:23.171Z,95845.88
2023-03-27T06:53:51.822Z,95843.88
2023-03-27T06:56:20.035Z,95844.45
2023-03-27T06:59:07.269Z,95849.74
2023-03-27T07:01:35.588Z,95847.36
2023-03-27T07:04:18.712Z,95851.38
2023-03-27T07:06:57.476Z,95850.73
2023-03-27T07:09:27.691Z,95844.23
2023-03-27T07:12:01.077Z,95847.20
2023-03-27T07:14:29.150Z,95842.84
2023-03-27T07:16:58.075Z,95840.98
2023-03-27T07:19:28.362Z,95840.51
2023-03-27T07:22:07.399Z,95846.80
2023-03-27T07:24:38.456Z,95847.29
2023-03-27T07:27:07.902Z,95850.82
2023-03-27T07:29:37.317Z,95848.66
2023-03-27T07:32:09.152Z,95842.58
2023-03-27T07:34:41.207Z,95839.73
2023-03-27T07:37:22.776Z,95836.25
2023-03-27T07:40:14.133Z,95835.23
2023-03-27T07:42:46.188Z,95832.73
2023-03-27T07:45:22.598Z,95833.27
2023-03-27T07:47:54.891Z,95831.52
2023-03-27T07:50:23.627Z,95829.13
2023-03-27T07:52:51.876Z,95821.27
2023-03-27T07:55:22.326Z,95823.20
2023-03-27T07:58:03.162Z,95815.83
2023-03-27T08:00:35.805Z,95813.16
2023-03-27T08:03:16.697Z,95810.71
2023-03-27T08:05:56.773Z,95808.95
2023-03-27T08:08:39.689Z,95812.95
2023-03-27T08:11:27.310Z,95813.38
2023-03-27T08:13:59.449Z,95814.35
2023-03-27T08:16:33.939Z,95813.01
2023-03-27T08:19:06.863Z,95815.05
2023-03-27T08:21:40.972Z,95809.90
2023-03-27T08:24:10.536Z,95802.20
2023-03-27T08:26:59.576Z,95798.46
2023-03-27T08:29:28.548Z,95803.79
2023-03-27T08:31:58.400Z,95799.66
2023-03-27T08:34:30.971Z,95801.33
2023-03-27T08:37:04.537Z,95798.90
2023-03-27T08:39:54.701Z,95799.00
2023-03-27T08:42:37.348Z,95794.23
2023-03-27T08:45:40.760Z,95790.84
2023-03-27T08:48:27.686Z,95794.05
2023-03-27T08:51:11.625Z,95793.74
2023-03-27T08:54:15.657Z,95788.92
2023-03-27T08:56:50.240Z,95793.79
2023-03-27T08:59:41.862Z,95787.42
2023-03-27T09:02:36.430Z,95783.98
2023-03-27T09:09:39.935Z,95788.34
2023-03-27T09:12:29.072Z,95785.60
2023-03-27T09:15:33.323Z,95783.27
2023-03-27T09:18:10.036Z,95777.44
2023-03-27T09:20:45.441Z,95773.90
2023-03-27T09:23:28.298Z,95767.86
2023-03-27T09:26:30.418Z,95768.17
2023-03-27T09:29:29.237Z,95769.69
2023-03-27T09:32:20.583Z,95759.00
2023-03-27T09:34:50.170Z,95747.27
2023-03-27T09:37:19.567Z,95747.06
2023-03-27T09:40:23.538Z,95750.06
2023-03-27T09:43:14.093Z,95738.16
2023-03-27T09:45:48.360Z,95742.23
2023-03-27T09:48:50.665Z,95744.09
2023-03-27T09:51:40.694Z,95743.34
2023-03-27T09:54:32.885Z,95742.58
2023-03-27T09:57:07.219Z,95739.45
2023-03-27T09:59:54.769Z,95734.80
2023-03-27T10:02:28.495Z,95732.14
2023-03-27T10:05:01.980Z,95726.33
2023-03-27T10:07:34.697Z,95724.33
2023-03-27T10:10:42.155Z,95718.77
2023-03-27T10:13:26.374Z,95712.63
2023-03-27T10:16:06.226Z,95714.44
2023-03-27T10:18:54.521Z,95715.41
2023-03-27T10:21:31.698Z,95720.81
2023-03-27T10:24:06.716Z,95720.61
2023-03-27T10:26:55.977Z,95716.05
2023-03-27T10:29:28.927Z,95707.85
2023-03-27T10:32:02.260Z,95703.39
2023-03-27T10:34:59.770Z,95695.11
2023-03-27T10:37:37.288Z,95681.05
2023-03-27T10:40:40.007Z,95679.65
2023-03-27T10:43:29.867Z,95681.36
2023-03-27T10:46:05.936Z,95685.05
2023-03-27T10:48:47.778Z,95690.69
2023-03-27T10:51:28.383Z,95690.66
2023-03-27T10:54:14.549Z,95684.50
2023-03-27T10:57:00.060Z,95681.48
2023-03-27T10:59:41.924Z,95676.25
2023-03-27T11:02:37.470Z,95680.84
2023-03-27T11:05:12.933Z,95675.98
2023-03-27T11:08:12.345Z,95671.48
2023-03-27T11:10:46.957Z,95666.63
2023-03-27T11:13:28.421Z,95663.52
2023-03-27T11:16:23.959Z,95663.90
2023-03-27T11:19:30.512Z,95660.64
2023-03-27T11:23:05.004Z,95656.91
2023-03-27T11:26:12.343Z,95649.83
2023-03-27T11:28:50.093Z,95646.02
2023-03-27T11:31:46.479Z,95640.63
2023-03-27T11:34:38.190Z,95631.98
2023-03-27T11:37:37.802Z,95626.63
2023-03-27T11:40:28.195Z,95620.48
2023-03-27T11:43:01.564Z,95615.77
2023-03-27T11:45:42.651Z,95605.52
2023-03-27T11:48:34.289Z,95604.07
2023-03-27T11:51:29.688Z,95601.84
2023-03-27T11:54:14.951Z,95598.29
2023-03-27T11:57:04.916Z,95595.42
2023-03-27T12:00:05.472Z,95592.55
2023-03-27T12:03:01.944Z,95590.36
2023-03-27T12:05:43.214Z,95586.19
2023-03-27T12:08:31.093Z,95581.38
2023-03-27T12:11:03.610Z,95577.27
2023-03-27T12:13:47.729Z,95571.05
2023-03-27T12:16:57.809Z,95572.82
2023-03-27T12:19:53.216Z,95573.84
2023-03-27T12:22:37.085Z,95574.66
2023-03-27T12:25:33.626Z,95573.23
2023-03-27T12:28:23.899Z,95580.54
2023-03-27T12:31:34.141Z,95581.43
2023-03-27T12:34:30.790Z,95581.77
2023-03-27T12:37:02.672Z,95577.63
2023-03-27T12:39:46.094Z,95578.55
2023-03-27T12:42:44.099Z,95582.34
2023-03-27T12:45:22.331Z,95583.02
2023-03-27T12:48:10.203Z,95576.50
2023-03-27T12:50:47.505Z,95576.23
2023-03-27T12:53:42.114Z,95572.10
2023-03-27T12:56:25.584Z,95573.10
2023-03-27T12:58:55.660Z,95575.95
2023-03-27T13:01:52.715Z,95576.48
2023-03-27T13:04:52.266Z,95576.23
2023-03-27T13:07:43.398Z,95578.72
2023-03-27T13:10:36.046Z,95574.53
2023-03-27T13:13:23.470Z,95571.23
2023-03-27T13:16:01.341Z,95568.42
2023-03-27T13:19:05.609Z,95566.50
2023-03-27T13:21:57.333Z,95560.36
2023-03-27T13:24:53.332Z,95563.23
2023-03-27T13:27:49.538Z,95560.14
2023-03-27T13:30:40.595Z,95555.06
2023-03-27T13:33:18.251Z,95554.60
2023-03-27T13:36:15.209Z,95554.73
2023-03-27T13:38:53.096Z,95549.34
2023-03-27T13:42:10.722Z,95548.09
2023-03-27T13:45:20.830Z,95545.70
2023-03-27T13:48:25.883Z,95549.05
2023-03-27T13:51:27.535Z,95558.39
2023-03-27T13:54:33.634Z,95563.70
2023-03-27T13:57:24.229Z,95565.92
2023-03-27T14:00:21.109Z,95565.94
2023-03-27T14:03:16.456Z,95549.98
2023-03-27T14:06:15.970Z,95524.44
2023-03-27T14:08:56.048Z,95535.50
2023-03-27T14:12:15.673Z,95541.21
2023-03-27T14:15:22.569Z,95529.61
2023-03-27T14:18:37.423Z,95526.66
2023-03-27T14:21:10.263Z,95530.98
2023-03-27T14:23:50.917Z,95533.98
2023-03-27T14:26:42.821Z,95530.41
2023-03-27T14:29:16.866Z,95522.77
2023-03-27T14:31:50.894Z,95511.70
2023-03-27T14:34:53.382Z,95514.33
2023-03-27T14:37:39.431Z,95519.74
2023-03-27T14:40:23.337Z,95524.77
2023-03-27T14:42:56.508Z,95532.41
2023-03-27T14:45:27.867Z,95535.89
2023-03-27T14:48:19.325Z,95535.53
2023-03-27T14:50:54.378Z,95531.80
2023-03-27T14:53:29.650Z,95527.12
2023-03-27T14:56:37.377Z,95525.85
2023-03-27T14:59:15.709Z,95529.07
2023-03-27T15:01:52.439Z,95529.54
2023-03-27T15:04:25.462Z,95528.20
2023-03-27T15:07:13.292Z,95525.34
2023-03-27T15:10:07.407Z,95525.67
2023-03-27T15:12:57.048Z,95524.80
2023-03-27T15:15:47.085Z,95525.09
2023-03-27T15:18:36.442Z,95529.52
2023-03-27T15:21:17.152Z,95530.14
2023-03-27T15:24:10.947Z,95536.09
2023-03-27T15:26:42.636Z,95539.56
2023-03-27T15:29:27.494Z,95546.68
2023-03-27T15:31:57.445Z,95549.94
2023-03-27T15:34:34.707Z,95554.75
2023-03-27T15:37:10.951Z,95561.19
2023-03-27T15:39:58.711Z,95570.83
2023-03-27T15:42:44.465Z,95588.64
2023-03-27T15:45:16.800Z,95594.06
2023-03-27T15:47:57.095Z,95601.95
2023-03-27T15:50:31.187Z,95616.49
2023-03-27T15:53:01.673Z,95612.95
2023-03-27T15:55:44.926Z,95612.35
2023-03-27T15:58:26.476Z,95612.72
2023-03-27T16:01:03.475Z,95620.58
2023-03-27T16:03:48.739Z,95622.13
2023-03-27T16:06:45.972Z,95620.27
2023-03-27T16:09:23.968Z,95620.40
2023-03-27T16:11:54.776Z,95624.95
2023-03-27T16:14:34.942Z,95626.98
2023-03-27T16:17:20.613Z,95625.29
2023-03-27T16:19:58.065Z,95622.55
2023-03-27T16:22:35.772Z,95626.45
2023-03-27T16:25:08.794Z,95625.85
2023-03-27T16:27:42.864Z,95627.42
2023-03-27T16:30:22.688Z,95627.52
2023-03-27T16:32:51.780Z,95619.79
2023-03-27T16:35:20.685Z,95610.48
2023-03-27T16:37:48.935Z,95612.00
2023-03-27T16:40:17.288Z,95616.25
2023-03-27T16:42:45.590Z,95618.27
2023-03-27T16:45:13.582Z,95616.98
2023-03-27T16:47:42.296Z,95620.23
2023-03-27T16:50:18.723Z,95621.65
2023-03-27T16:52:46.782Z,95618.66
2023-03-27T16:55:17.939Z,95616.66
2023-03-27T16:57:48.929Z,95610.23
2023-03-27T17:00:22.413Z,95611.67
2023-03-27T17:02:50.455Z,95614.98
2023-03-27T17:05:18.649Z,95625.24
2023-03-27T17:07:48.430Z,95622.95
2023-03-27T17:10:16.946Z,95617.88
2023-03-27T17:12:45.178Z,95617.08
2023-03-27T17:15:15.111Z,95623.14
2023-03-27T17:17:43.994Z,95623.99
2023-03-27T17:20:15.436Z,95628.95
2023-03-27T17:22:45.829Z,95629.33
2023-03-27T17:25:14.275Z,95630.59
2023-03-27T17:27:42.348Z,95627.44
2023-03-27T17:30:16.028Z,95623.73
2023-03-27T17:32:46.631Z,95624.27
2023-03-27T17:35:16.692Z,95614.58
2023-03-27T17:37:47.016Z,95621.24
2023-03-27T17:40:15.558Z,95628.99
2023-03-27T17:42:44.003Z,95634.26
2023-03-27T17:45:19.651Z,95634.23
2023-03-27T17:47:48.155Z,95641.61
2023-03-27T17:50:16.547Z,95642.55
2023-03-27T17:52:44.541Z,95648.10
2023-03-27T17:55:13.641Z,95646.94
2023-03-27T17:57:42.266Z,95643.20
2023-03-27T18:00:10.797Z,95642.34
2023-03-27T18:02:43.656Z,95642.23
2023-03-27T18:05:12.152Z,95646.53
2023-03-27T18:07:40.841Z,95653.27
2023-03-27T18:10:12.815Z,95656.05
2023-03-27T18:12:41.122Z,95655.91
2023-03-27T18:15:09.507Z,95657.05
2023-03-27T18:17:41.661Z,95658.11
2023-03-27T18:20:15.942Z,95660.02
2023-03-27T18:22:44.609Z,95662.27
2023-03-27T18:25:12.977Z,95663.16
2023-03-27T18:27:41.212Z,95666.60
2023-03-27T18:30:13.504Z,95659.75
2023-03-27T18:32:43.313Z,95663.77
2023-03-27T18:35:17.212Z,95662.02
2023-03-27T18:37:46.877Z,95659.47
2023-03-27T18:40:18.304Z,95659.14
2023-03-27T18:42:46.556Z,95663.39
2023-03-27T18:45:16.940Z,95662.62
2023-03-27T18:47:45.161Z,95666.75
2023-03-27T18:50:14.666Z,95672.18
2023-03-27T18:52:43.171Z,95679.95
2023-03-27T18:55:11.575Z,95684.15
2023-03-27T18:57:39.868Z,95681.13
2023-03-27T19:00:09.668Z,95681.52
2023-03-27T19:02:37.777Z,95683.80
2023-03-27T19:05:07.167Z,95688.90
2023-03-27T19:07:36.741Z,95689.98
2023-03-27T19:10:14.151Z,95690.04
2023-03-27T19:12:46.291Z,95699.05
2023-03-27T19:15:33.400Z,95708.54
2023-03-27T19:18:21.348Z,95707.27
2023-03-27T19:21:14.580Z,95705.38
2023-03-27T19:23:44.060Z,95707.06
2023-03-27T19:26:16.646Z,95700.93
2023-03-27T19:28:50.973Z,95702.58
2023-03-27T19:31:19.203Z,95704.98
2023-03-27T19:33:47.362Z,95704.65
2023-03-27T19:36:15.908Z,95703.21
2023-03-27T19:38:44.432Z,95702.59
2023-03-27T19:41:13.863Z,95702.77
2023-03-27T19:43:42.043Z,95712.76
2023-03-27T19:46:16.277Z,95712.75
2023-03-27T19:48:47.474Z,95714.02
2023-03-27T19:51:29.733Z,95709.74
2023-03-27T19:53:57.683Z,95711.96
2023-03-27T19:56:28.880Z,95709.85
2023-03-27T19:58:58.210Z,95709.70
2023-03-27T20:01:28.504Z,95712.30
2023-03-27T20:03:59.683Z,95708.52
2023-03-27T20:06:28.906Z,95713.42
2023-03-27T20:09:01.159Z,95719.70
2023-03-27T20:11:29.275Z,95720.54
2023-03-27T20:13:57.472Z,95724.73
2023-03-27T20:16:27.779Z,95727.20
2023-03-27T20:19:05.942Z,95731.58
2023-03-27T20:21:39.709Z,95745.70
2023-03-27T20:24:11.824Z,95756.67
2023-03-27T20:26:48.113Z,95769.39
2023-03-27T20:29:20.809Z,95783.42
2023-03-27T20:31:49.104Z,95796.48
2023-03-27T20:34:19.725Z,95813.34
2023-03-27T20:36:48.515Z,95820.30
2023-03-27T20:39:27.803Z,95832.21
2023-03-27T20:41:59.116Z,95846.84
2023-03-27T20:44:35.242Z,95852.94
2023-03-27T20:47:12.123Z,95856.92
2023-03-27T20:49:43.871Z,95879.31
2023-03-27T20:52:19.541Z,95893.80
2023-03-27T20:54:48.004Z,95901.56
2023-03-27T20:57:19.913Z,95921.02
2023-03-27T20:59:48.303Z,95908.16
2023-03-27T21:02:19.530Z,95916.95
2023-03-27T21:04:48.419Z,95916.91
2023-03-27T21:07:16.944Z,95925.79
2023-03-27T21:09:48.014Z,95936.77
2023-03-27T21:12:16.388Z,95941.80
2023-03-27T21:14:44.408Z,95953.45
2023-03-27T21:17:13.359Z,95951.48
2023-03-27T21:19:41.830Z,95961.61
2023-03-27T21:22:10.388Z,95945.98
2023-03-27T21:24:40.718Z,95942.88
2023-03-27T21:27:08.926Z,95955.82
2023-03-27T21:29:37.105Z,95956.27
2023-03-27T21:32:05.862Z,95951.94
2023-03-27T21:34:33.919Z,95963.45
2023-03-27T21:37:03.163Z,95974.05
2023-03-27T21:39:31.613Z,95974.46
2023-03-27T21:41:59.749Z,95983.63
2023-03-27T21:44:28.459Z,95989.34
2023-03-27T21:46:56.676Z,95988.31
2023-03-27T21:49:26.588Z,95988.81
2023-03-27T21:51:55.070Z,95990.27
2023-03-27T21:54:23.191Z,95998.75
2023-03-27T21:56:51.145Z,96007.02
2023-03-27T21:59:19.240Z,96003.11
2023-03-27T22:01:47.841Z,96009.19
2023-03-27T22:04:16.078Z,96019.88
2023-03-27T22:06:44.460Z,96018.55
2023-03-27T22:09:12.689Z,96038.35
2023-03-27T22:11:40.846Z,96041.33
2023-03-27T22:14:09.779Z,96053.92
2023-03-27T22:16:38.246Z,96060.41
2023-03-27T22:19:07.907Z,96079.23
2023-03-27T22:21:36.011Z,96088.15
2023-03-27T22:24:04.661Z,96090.02
2023-03-27T22:26:35.960Z,96092.59
2023-03-27T22:29:05.570Z,96101.14
2023-03-27T22:31:34.054Z,96108.95
2023-03-27T22:34:04.640Z,96129.03
2023-03-27T22:36:33.547Z,96123.93
2023-03-27T22:39:01.757Z,96126.48
2023-03-27T22:41:29.967Z,96126.96
2023-03-27T22:44:01.793Z,96130.45
2023-03-27T22:46:31.174Z,96148.11
2023-03-27T22:48:59.344Z,96142.60
2023-03-27T22:51:31.394Z,96153.23
2023-03-27T22:54:00.126Z,96159.94
2023-03-27T22:56:28.100Z,96179.38
2023-03-27T22:58:56.234Z,96183.80
2023-03-27T23:01:24.273Z,96177.50
2023-03-27T23:03:52.421Z,96196.59
2023-03-27T23:06:23.245Z,96177.62
2023-03-27T23:08:51.463Z,96188.59
2023-03-27T23:11:20.473Z,96191.92
2023-03-27T23:13:48.848Z,96203.46
2023-03-27T23:16:16.803Z,96206.48
2023-03-27T23:18:44.948Z,96211.63
2023-03-27T23:21:16.697Z,96225.08
2023-03-27T23:23:45.086Z,96224.61
2023-03-27T23:26:14.875Z,96215.88
2023-03-27T23:28:42.882Z,96232.02
2023-03-27T23:31:14.690Z,96243.31
2023-03-27T23:33:46.054Z,96236.15
2023-03-27T23:36:16.762Z,96242.70
2023-03-27T23:38:44.880Z,96229.11
2023-03-27T23:41:14.785Z,96252.48
2023-03-27T23:43:43.044Z,96263.05
2023-03-27T23:46:11.655Z,96259.08
2023-03-27T23:48:41.995Z,96276.98
2023-03-27T23:51:11.802Z,96274.67
2023-03-27T23:53:40.486Z,96279.00
2023-03-27T23:56:09.216Z,96312.20
2023-03-27T23:58:38.114Z,96295.36
